Terminal Aerodrome Forecast
Issued by NWS

Home | Current Version | Previous Version | Text Only | Print | Product List | Glossary On
Versions: 1 2 3 4 5 6 7 8 9 10 11 12 13 14 15 16 17 18
000
FTUS43 KMQT 041447 AAA
TAFSAW
TAF AMD
KSAW 041447Z 0415/0512 31005KT P6SM BKN020 OVC030
     FM041800 35007KT P6SM BKN035
     FM042100 36007KT P6SM SCT040
     FM042300 36006KT P6SM SCT090
     FM050900 30003KT P6SM FEW140=

USA.gov is the U.S. government's official web portal to all federal, state and local government web resources and services.